createdAt,value
2022-10-29T00:00:36.419Z,13.30
2022-10-29T00:03:03.584Z,13.20
2022-10-29T00:05:30.787Z,13.30
2022-10-29T00:07:58.083Z,13.30
2022-10-29T00:10:25.424Z,13.20
2022-10-29T00:12:52.731Z,13.20
2022-10-29T00:15:19.796Z,13.20
2022-10-29T00:17:46.911Z,13.20
2022-10-29T00:20:14.016Z,13.20
2022-10-29T00:22:41.154Z,13.20
2022-10-29T00:25:08.463Z,13.30
2022-10-29T00:27:35.540Z,13.20
2022-10-29T00:30:02.692Z,13.60
2022-10-29T00:32:29.771Z,13.20
2022-10-29T00:34:56.996Z,13.20
2022-10-29T00:37:24.144Z,13.30
2022-10-29T00:39:51.270Z,13.20
2022-10-29T00:42:18.409Z,13.30
2022-10-29T00:44:45.479Z,13.20
2022-10-29T00:47:44.713Z,13.20
2022-10-29T00:50:13.859Z,13.30
2022-10-29T00:52:43.672Z,13.30
2022-10-29T00:55:11.841Z,13.20
2022-10-29T00:57:40.263Z,13.30
2022-10-29T01:00:07.746Z,13.20
2022-10-29T01:02:36.025Z,13.20
2022-10-29T01:05:04.083Z,13.20
2022-10-29T01:07:31.591Z,13.30
2022-10-29T01:09:58.937Z,13.30
2022-10-29T01:12:32.604Z,13.30
2022-10-29T01:15:04.494Z,13.30
2022-10-29T01:17:49.710Z,13.40
2022-10-29T01:20:19.738Z,13.40
2022-10-29T01:22:56.997Z,13.40
2022-10-29T01:25:45.102Z,13.30
2022-10-29T01:28:12.145Z,13.30
2022-10-29T01:30:45.373Z,13.30
2022-10-29T01:33:15.179Z,13.30
2022-10-29T01:36:02.254Z,13.40
2022-10-29T01:38:39.883Z,13.50
2022-10-29T01:41:25.702Z,13.50
2022-10-29T01:43:58.889Z,13.50
2022-10-29T01:46:31.897Z,13.60
2022-10-29T01:49:02.695Z,13.60
2022-10-29T01:51:31.189Z,13.60
2022-10-29T01:53:59.125Z,13.60
2022-10-29T01:56:26.259Z,13.70
2022-10-29T01:58:55.187Z,13.70
2022-10-29T02:01:42.532Z,13.70
2022-10-29T02:04:17.344Z,13.80
2022-10-29T02:06:44.390Z,13.80
2022-10-29T02:09:16.398Z,14.80
2022-10-29T02:11:47.160Z,13.80
2022-10-29T02:14:17.275Z,13.80
2022-10-29T02:16:45.770Z,13.80
2022-10-29T02:19:13.047Z,13.80
2022-10-29T02:21:40.766Z,13.70
2022-10-29T02:24:08.251Z,13.80
2022-10-29T02:26:35.351Z,13.80
2022-10-29T02:29:02.799Z,13.80
2022-10-29T02:31:29.959Z,12.80
2022-10-29T02:33:57.031Z,13.70
2022-10-29T02:36:24.101Z,13.80
2022-10-29T02:38:51.156Z,13.80
2022-10-29T02:41:18.454Z,13.80
2022-10-29T02:43:45.581Z,13.80
2022-10-29T02:46:13.989Z,13.50
2022-10-29T02:48:41.123Z,13.80
2022-10-29T02:51:08.343Z,13.80
2022-10-29T02:53:35.479Z,13.90
2022-10-29T02:56:02.660Z,13.90
2022-10-29T02:58:29.755Z,13.90
2022-10-29T03:00:56.842Z,13.90
2022-10-29T03:03:24.876Z,13.90
2022-10-29T03:05:51.974Z,13.90
2022-10-29T03:08:19.507Z,14.00
2022-10-29T03:10:46.613Z,14.00
2022-10-29T03:13:14.478Z,14.00
2022-10-29T03:15:43.783Z,14.10
2022-10-29T03:18:11.080Z,15.30
2022-10-29T03:20:38.471Z,14.10
2022-10-29T03:23:05.646Z,14.10
2022-10-29T03:25:32.737Z,14.80
2022-10-29T03:27:59.817Z,14.10
2022-10-29T03:30:26.934Z,14.20
2022-10-29T03:32:54.180Z,14.20
2022-10-29T03:35:21.645Z,14.20
2022-10-29T03:37:49.758Z,14.20
2022-10-29T03:40:17.207Z,14.20
2022-10-29T03:42:44.514Z,13.90
2022-10-29T03:45:12.034Z,14.20
2022-10-29T03:47:39.192Z,14.20
2022-10-29T03:50:06.516Z,14.20
2022-10-29T03:52:33.571Z,14.20
2022-10-29T03:55:00.618Z,14.30
2022-10-29T03:57:27.896Z,14.30
2022-10-29T03:59:56.088Z,14.20
2022-10-29T04:02:23.571Z,14.20
2022-10-29T04:04:50.723Z,14.20
2022-10-29T04:07:17.819Z,14.30
2022-10-29T04:09:44.962Z,14.30
2022-10-29T04:12:12.073Z,14.30
2022-10-29T04:14:44.472Z,14.30
2022-10-29T04:17:12.961Z,14.30
2022-10-29T04:19:40.633Z,14.30
2022-10-29T04:30:29.118Z,14.30
2022-10-29T04:32:57.665Z,14.30
2022-10-29T04:35:28.464Z,14.30
2022-10-29T04:37:55.663Z,14.30
2022-10-29T04:40:24.488Z,14.30
2022-10-29T04:42:51.609Z,14.30
2022-10-29T04:45:18.837Z,14.30
2022-10-29T04:47:46.105Z,14.30
2022-10-29T04:50:13.453Z,14.60
2022-10-29T04:52:40.553Z,14.30
2022-10-29T04:55:07.816Z,14.20
2022-10-29T04:57:34.933Z,14.30
2022-10-29T05:00:02.217Z,14.30
2022-10-29T05:02:29.337Z,14.30
2022-10-29T05:04:56.420Z,14.30
2022-10-29T05:07:23.560Z,14.30
2022-10-29T05:09:50.617Z,14.30
2022-10-29T05:12:17.746Z,15.30
2022-10-29T05:14:44.809Z,14.50
2022-10-29T05:17:11.866Z,14.30
2022-10-29T05:19:38.941Z,14.30
2022-10-29T05:22:06.006Z,14.30
2022-10-29T05:24:33.054Z,14.30
2022-10-29T05:27:00.147Z,14.30
2022-10-29T05:29:27.217Z,14.30
2022-10-29T05:31:54.641Z,14.30
2022-10-29T05:34:21.755Z,14.30
2022-10-29T05:36:48.888Z,14.30
2022-10-29T05:39:16.167Z,14.40
2022-10-29T05:41:43.326Z,14.30
2022-10-29T05:44:10.403Z,14.30
2022-10-29T05:46:37.715Z,14.30
2022-10-29T05:49:04.770Z,14.30
2022-10-29T05:51:32.027Z,14.30
2022-10-29T05:53:59.073Z,14.30
2022-10-29T05:56:26.152Z,14.30
2022-10-29T05:58:53.247Z,14.30
2022-10-29T06:01:20.409Z,14.30
2022-10-29T06:03:47.654Z,14.30
2022-10-29T06:06:14.886Z,14.30
2022-10-29T06:08:42.037Z,14.30
2022-10-29T06:11:09.128Z,14.30
2022-10-29T06:13:36.445Z,14.30
2022-10-29T06:16:03.537Z,14.30
2022-10-29T06:18:30.652Z,14.40
2022-10-29T06:20:58.466Z,14.30
2022-10-29T06:23:25.566Z,14.30
2022-10-29T06:25:52.666Z,14.30
2022-10-29T06:28:19.732Z,14.30
2022-10-29T06:30:48.832Z,14.30
2022-10-29T06:33:16.840Z,14.30
2022-10-29T06:35:43.971Z,14.30
2022-10-29T06:38:12.418Z,14.30
2022-10-29T06:40:40.406Z,14.30
2022-10-29T06:43:09.506Z,14.30
2022-10-29T06:45:36.826Z,14.30
2022-10-29T06:48:05.530Z,14.30
2022-10-29T06:50:32.711Z,15.20
2022-10-29T06:53:04.255Z,14.30
2022-10-29T06:55:31.402Z,14.20
2022-10-29T06:57:58.485Z,14.30
2022-10-29T07:00:25.906Z,14.30
2022-10-29T07:02:53.516Z,14.30
2022-10-29T07:05:20.890Z,14.30
2022-10-29T07:07:48.199Z,14.30
2022-10-29T07:10:15.552Z,14.20
2022-10-29T07:12:43.290Z,14.20
2022-10-29T07:15:10.965Z,13.40
2022-10-29T07:17:38.300Z,14.20
2022-10-29T07:20:06.085Z,14.20
2022-10-29T07:22:34.903Z,13.60
2022-10-29T07:25:02.178Z,14.20
2022-10-29T07:27:29.499Z,14.30
2022-10-29T07:29:56.619Z,14.20
2022-10-29T07:32:24.707Z,13.90
2022-10-29T07:34:51.823Z,14.30
2022-10-29T07:37:18.884Z,14.30
2022-10-29T07:39:46.024Z,14.40
2022-10-29T07:42:13.171Z,14.40
2022-10-29T07:44:40.242Z,14.50
2022-10-29T07:47:07.332Z,14.50
2022-10-29T07:49:34.445Z,14.50
2022-10-29T07:52:01.520Z,14.50
2022-10-29T07:54:28.720Z,14.50
2022-10-29T07:56:55.804Z,14.60
2022-10-29T07:59:22.828Z,14.60
2022-10-29T08:01:50.001Z,14.60
2022-10-29T08:04:17.140Z,14.60
2022-10-29T08:06:44.394Z,14.60
2022-10-29T08:09:12.234Z,14.70
2022-10-29T08:11:39.965Z,14.70
2022-10-29T08:14:07.071Z,15.50
2022-10-29T08:16:34.212Z,14.70
2022-10-29T08:19:01.496Z,14.10
2022-10-29T08:21:28.815Z,14.80
2022-10-29T08:23:56.410Z,14.80
2022-10-29T08:26:23.529Z,14.80
2022-10-29T08:28:50.562Z,14.80
2022-10-29T08:31:19.016Z,14.80
2022-10-29T08:33:47.940Z,14.90
2022-10-29T08:36:15.879Z,14.80
2022-10-29T08:38:42.960Z,15.00
2022-10-29T08:41:28.633Z,15.00
2022-10-29T08:44:15.160Z,15.00
2022-10-29T08:46:50.482Z,15.00
2022-10-29T08:49:19.747Z,15.00
2022-10-29T08:51:53.359Z,15.10
2022-10-29T08:54:36.288Z,15.10
2022-10-29T08:57:08.745Z,15.20
2022-10-29T08:59:38.232Z,15.20
2022-10-29T09:02:09.096Z,15.30
2022-10-29T09:04:38.124Z,15.30
2022-10-29T09:07:20.198Z,15.40
2022-10-29T09:09:53.366Z,15.50
2022-10-29T09:12:30.665Z,15.50
2022-10-29T09:15:10.301Z,15.60
2022-10-29T09:17:56.362Z,15.60
2022-10-29T09:20:29.765Z,15.70
2022-10-29T09:22:59.585Z,15.80
2022-10-29T09:25:58.885Z,15.80
2022-10-29T09:28:32.931Z,15.90
2022-10-29T09:31:10.516Z,16.00
2022-10-29T09:33:38.808Z,16.00
2022-10-29T09:36:12.733Z,16.10
2022-10-29T09:38:46.679Z,16.10
2022-10-29T09:41:13.903Z,16.20
2022-10-29T09:43:49.804Z,16.20
2022-10-29T09:46:22.751Z,15.80
2022-10-29T09:49:12.959Z,16.30
2022-10-29T09:51:51.199Z,16.40
2022-10-29T09:54:18.618Z,16.40
2022-10-29T09:56:50.425Z,16.50
2022-10-29T09:59:20.215Z,16.50
2022-10-29T10:01:48.226Z,16.60
2022-10-29T10:05:22.307Z,17.80
2022-10-29T10:08:13.121Z,16.70
2022-10-29T10:10:51.952Z,16.30
2022-10-29T10:13:24.644Z,16.80
2022-10-29T10:16:00.613Z,16.80
2022-10-29T10:18:40.839Z,16.80
2022-10-29T10:21:12.655Z,16.80
2022-10-29T10:23:46.743Z,16.80
2022-10-29T10:26:45.523Z,16.80
2022-10-29T10:29:14.739Z,16.80
2022-10-29T10:31:44.206Z,16.90
2022-10-29T10:34:27.453Z,16.80
2022-10-29T10:37:02.073Z,16.80
2022-10-29T10:39:53.151Z,16.90
2022-10-29T10:42:42.815Z,16.90
2022-10-29T10:45:39.230Z,16.90
2022-10-29T10:48:10.531Z,17.00
2022-10-29T10:50:38.127Z,17.00
2022-10-29T10:53:23.332Z,17.10
2022-10-29T10:55:59.971Z,17.10
2022-10-29T10:58:34.453Z,17.10
2022-10-29T11:01:04.286Z,17.20
2022-10-29T11:03:47.478Z,17.40
2022-10-29T11:06:30.007Z,17.10
2022-10-29T11:09:06.281Z,17.30
2022-10-29T11:11:52.774Z,17.30
2022-10-29T11:14:47.769Z,17.00
2022-10-29T11:17:30.209Z,17.30
2022-10-29T11:20:06.316Z,17.30
2022-10-29T11:22:45.445Z,17.30
2022-10-29T11:25:27.602Z,17.40
2022-10-29T11:28:15.698Z,17.40
2022-10-29T11:30:50.701Z,17.40
2022-10-29T11:33:20.953Z,17.50
2022-10-29T11:36:09.599Z,17.50
2022-10-29T11:39:07.304Z,17.50
2022-10-29T11:41:51.971Z,17.50
2022-10-29T11:44:21.827Z,17.50
2022-10-29T11:47:21.596Z,17.60
2022-10-29T11:50:16.372Z,17.70
2022-10-29T11:53:01.384Z,17.70
2022-10-29T11:56:03.750Z,17.70
2022-10-29T11:58:41.068Z,17.80
2022-10-29T12:01:17.779Z,17.80
2022-10-29T12:04:04.018Z,17.80
2022-10-29T12:06:42.487Z,17.90
2022-10-29T12:09:34.140Z,17.90
2022-10-29T12:12:11.033Z,17.90
2022-10-29T12:14:47.215Z,17.90
2022-10-29T12:17:30.344Z,17.90
2022-10-29T12:20:22.188Z,17.60
2022-10-29T12:23:04.421Z,17.90
2022-10-29T12:26:00.644Z,17.90
2022-10-29T12:28:46.658Z,17.90
2022-10-29T12:31:24.419Z,17.80
2022-10-29T12:34:00.460Z,17.80
2022-10-29T12:36:57.490Z,17.80
2022-10-29T12:39:39.346Z,17.80
2022-10-29T12:42:27.793Z,17.90
2022-10-29T12:45:20.605Z,17.90
2022-10-29T12:47:50.610Z,17.90
2022-10-29T12:50:37.361Z,18.00
2022-10-29T12:53:12.022Z,18.00
2022-10-29T12:55:39.663Z,18.00
2022-10-29T12:58:44.799Z,18.00
2022-10-29T13:01:50.150Z,18.00
2022-10-29T13:04:30.664Z,18.00
2022-10-29T13:10:23.632Z,18.00
2022-10-29T13:12:59.827Z,18.00
2022-10-29T13:15:41.888Z,18.00
2022-10-29T13:18:21.185Z,18.00
2022-10-29T13:20:51.407Z,18.00
2022-10-29T13:23:24.807Z,18.00
2022-10-29T13:25:58.248Z,18.00
2022-10-29T13:28:26.075Z,18.10
2022-10-29T13:30:59.541Z,18.10
2022-10-29T13:33:26.887Z,18.20
2022-10-29T13:36:26.174Z,18.20
2022-10-29T13:39:06.096Z,18.20
2022-10-29T13:41:43.489Z,18.30
2022-10-29T13:44:22.587Z,18.30
2022-10-29T13:46:57.180Z,18.30
2022-10-29T13:49:38.129Z,18.30
2022-10-29T13:52:26.126Z,18.30
2022-10-29T13:55:08.419Z,18.20
2022-10-29T13:57:38.409Z,18.20
2022-10-29T14:00:20.453Z,18.10
2022-10-29T14:03:02.431Z,18.10
2022-10-29T14:05:43.105Z,18.20
2022-10-29T14:08:13.661Z,18.20
2022-10-29T14:10:40.880Z,18.20
2022-10-29T14:13:12.073Z,18.20
2022-10-29T14:15:40.135Z,18.30
2022-10-29T14:18:25.709Z,18.30
2022-10-29T14:20:59.228Z,18.30
2022-10-29T14:23:28.208Z,18.40
2022-10-29T14:25:57.344Z,18.30
2022-10-29T14:28:31.749Z,18.30
2022-10-29T14:31:05.198Z,18.30
2022-10-29T14:33:35.884Z,18.30
2022-10-29T14:36:13.171Z,18.30
2022-10-29T14:39:03.120Z,18.30
2022-10-29T14:41:32.430Z,18.30
2022-10-29T14:44:18.605Z,18.40
2022-10-29T14:47:06.325Z,18.40
2022-10-29T14:49:38.846Z,18.40
2022-10-29T14:52:16.839Z,18.40
2022-10-29T14:54:48.532Z,18.40
2022-10-29T14:57:23.002Z,18.30
2022-10-29T14:59:58.391Z,18.30
2022-10-29T15:02:37.941Z,18.30
2022-10-29T15:05:20.892Z,18.30
2022-10-29T15:07:49.034Z,18.20
2022-10-29T15:10:18.879Z,18.20
2022-10-29T15:12:47.145Z,18.30
2022-10-29T15:15:17.474Z,18.20
2022-10-29T15:17:56.180Z,18.20
2022-10-29T15:20:33.856Z,18.20
2022-10-29T15:23:01.764Z,18.20
2022-10-29T15:25:39.844Z,17.90
2022-10-29T15:28:12.190Z,18.10
2022-10-29T15:30:40.131Z,18.10
2022-10-29T15:33:20.742Z,18.10
2022-10-29T15:35:59.546Z,18.00
2022-10-29T15:38:34.327Z,18.00
2022-10-29T15:41:36.452Z,18.00
2022-10-29T15:44:04.078Z,18.00
2022-10-29T15:46:43.365Z,17.90
2022-10-29T15:49:22.765Z,17.90
2022-10-29T15:51:50.289Z,17.60
2022-10-29T15:54:17.650Z,17.90
2022-10-29T15:56:45.026Z,17.90
2022-10-29T15:59:19.782Z,17.90
2022-10-29T16:01:47.374Z,17.80
2022-10-29T16:04:14.766Z,17.80
2022-10-29T16:06:42.027Z,17.80
2022-10-29T16:09:19.863Z,17.70
2022-10-29T16:11:47.270Z,17.70
2022-10-29T16:14:14.535Z,17.70
2022-10-29T16:16:41.852Z,17.60
2022-10-29T16:19:09.145Z,17.60
2022-10-29T16:21:36.679Z,17.80
2022-10-29T16:24:04.271Z,17.50
2022-10-29T16:26:31.607Z,17.50
2022-10-29T16:28:59.012Z,17.40
2022-10-29T16:31:28.808Z,17.40
2022-10-29T16:34:01.566Z,17.40
2022-10-29T16:36:28.944Z,17.30
2022-10-29T16:38:56.675Z,17.30
2022-10-29T16:41:24.144Z,17.30
2022-10-29T16:43:52.546Z,17.30
2022-10-29T16:46:19.894Z,17.30
2022-10-29T16:48:47.212Z,17.20
2022-10-29T16:51:14.613Z,17.20
2022-10-29T16:53:42.114Z,17.20
2022-10-29T16:56:09.589Z,17.20
2022-10-29T16:58:36.857Z,17.20
2022-10-29T17:01:05.763Z,17.10
2022-10-29T17:03:34.432Z,17.10
2022-10-29T17:06:09.655Z,17.10
2022-10-29T17:08:38.066Z,17.00
2022-10-29T17:11:10.091Z,17.00
2022-10-29T17:13:38.045Z,17.10
2022-10-29T17:16:10.260Z,17.00
2022-10-29T17:18:37.798Z,17.00
2022-10-29T17:21:05.462Z,16.90
2022-10-29T17:23:33.265Z,16.90
2022-10-29T17:26:00.907Z,17.00
2022-10-29T17:28:28.504Z,16.90
2022-10-29T17:30:55.896Z,16.90
2022-10-29T17:33:23.282Z,16.90
2022-10-29T17:35:59.944Z,16.90
2022-10-29T17:38:27.269Z,16.90
2022-10-29T17:40:54.579Z,16.90
2022-10-29T17:43:21.918Z,16.80
2022-10-29T17:45:50.711Z,16.80
2022-10-29T17:48:23.909Z,16.80
2022-10-29T17:50:57.336Z,16.80
2022-10-29T17:53:26.040Z,16.70
2022-10-29T17:55:53.444Z,16.80
2022-10-29T17:58:20.750Z,16.70
2022-10-29T18:00:50.856Z,16.70
2022-10-29T18:03:18.301Z,16.70
2022-10-29T18:05:45.685Z,16.70
2022-10-29T18:08:13.133Z,16.70
2022-10-29T18:10:40.477Z,16.60
2022-10-29T18:13:07.776Z,16.60
2022-10-29T18:15:36.839Z,16.60
2022-10-29T18:18:04.461Z,16.60
2022-10-29T18:20:31.734Z,16.60
2022-10-29T18:22:59.510Z,16.60
2022-10-29T18:25:27.040Z,16.60
2022-10-29T18:27:55.850Z,16.70
2022-10-29T18:30:23.417Z,17.20
2022-10-29T18:32:50.748Z,16.70
2022-10-29T18:35:18.109Z,16.70
2022-10-29T18:37:46.873Z,16.60
2022-10-29T18:40:14.178Z,16.60
2022-10-29T18:42:41.481Z,16.60
2022-10-29T18:45:09.615Z,16.60
2022-10-29T18:47:36.882Z,16.60
2022-10-29T18:50:04.521Z,16.60
2022-10-29T18:52:31.764Z,17.00
2022-10-29T18:54:59.111Z,16.60
2022-10-29T18:57:26.444Z,16.50
2022-10-29T18:59:55.055Z,16.60
2022-10-29T19:02:22.421Z,16.70
2022-10-29T19:04:49.980Z,16.50
2022-10-29T19:07:17.450Z,16.50
2022-10-29T19:09:44.812Z,16.50
2022-10-29T19:12:13.146Z,16.50
2022-10-29T19:14:40.467Z,16.50
2022-10-29T19:17:07.846Z,16.50
2022-10-29T19:19:35.215Z,16.50
2022-10-29T19:22:03.047Z,16.40
2022-10-29T19:24:33.424Z,16.40
2022-10-29T19:27:00.721Z,16.40
2022-10-29T19:29:28.174Z,16.40
2022-10-29T19:31:55.558Z,16.40
2022-10-29T19:34:23.855Z,16.30
2022-10-29T19:36:51.369Z,16.40
2022-10-29T19:39:18.749Z,16.40
2022-10-29T19:41:46.144Z,16.40
2022-10-29T19:44:13.450Z,16.40
2022-10-29T19:46:40.753Z,16.40
2022-10-29T19:49:08.036Z,16.40
2022-10-29T19:51:35.548Z,16.40
2022-10-29T19:54:04.322Z,16.40
2022-10-29T19:56:31.822Z,16.40
2022-10-29T19:58:59.136Z,16.40
2022-10-29T20:01:26.588Z,16.40
2022-10-29T20:03:54.062Z,16.40
2022-10-29T20:06:21.682Z,16.30
2022-10-29T20:08:49.093Z,16.30
2022-10-29T20:11:16.819Z,16.30
2022-10-29T20:13:44.206Z,16.30
2022-10-29T20:16:20.307Z,16.30
2022-10-29T20:18:48.633Z,16.30
2022-10-29T20:21:16.906Z,16.30
2022-10-29T20:23:44.776Z,16.20
2022-10-29T20:26:12.269Z,16.20
2022-10-29T20:28:39.668Z,16.20
2022-10-29T20:31:40.079Z,16.10
2022-10-29T20:34:09.280Z,16.10
2022-10-29T20:36:36.735Z,16.10
2022-10-29T20:39:04.428Z,16.10
2022-10-29T20:41:31.765Z,16.10
2022-10-29T20:44:01.595Z,16.10
2022-10-29T20:46:28.968Z,16.10
2022-10-29T20:48:56.291Z,16.10
2022-10-29T20:51:24.234Z,16.10
2022-10-29T20:53:52.635Z,16.10
2022-10-29T20:56:21.496Z,16.10
2022-10-29T20:58:48.797Z,16.10
2022-10-29T21:01:18.227Z,16.00
2022-10-29T21:03:47.233Z,16.10
2022-10-29T21:06:17.826Z,16.20
2022-10-29T21:08:49.571Z,16.00
2022-10-29T21:11:20.939Z,16.00
2022-10-29T21:13:48.651Z,15.90
2022-10-29T21:16:27.586Z,16.00
2022-10-29T21:18:58.058Z,16.00
2022-10-29T21:21:26.925Z,16.00
2022-10-29T21:23:59.825Z,16.00
2022-10-29T21:26:28.280Z,16.00
2022-10-29T21:28:55.904Z,15.90
2022-10-29T21:31:24.137Z,15.90
2022-10-29T21:33:53.312Z,15.80
2022-10-29T21:36:24.410Z,15.90
2022-10-29T21:38:52.066Z,15.90
2022-10-29T21:41:19.421Z,15.80
2022-10-29T21:43:46.895Z,15.80
2022-10-29T21:46:14.679Z,15.70
2022-10-29T21:48:41.979Z,15.80
2022-10-29T21:51:14.171Z,15.80
2022-10-29T21:53:42.788Z,15.70
2022-10-29T21:56:13.739Z,15.70
2022-10-29T21:58:41.769Z,15.70
2022-10-29T22:01:11.881Z,15.70
2022-10-29T22:03:41.522Z,15.70
2022-10-29T22:06:16.207Z,16.10
2022-10-29T22:08:50.502Z,15.60
2022-10-29T22:11:17.841Z,15.70
2022-10-29T22:13:45.514Z,15.60
2022-10-29T22:16:13.141Z,15.70
2022-10-29T22:18:40.998Z,15.60
2022-10-29T22:21:12.359Z,15.60
2022-10-29T22:23:46.051Z,15.60
2022-10-29T22:26:15.289Z,15.60
2022-10-29T22:28:43.061Z,15.60
2022-10-29T22:31:10.980Z,15.60
2022-10-29T22:33:39.005Z,15.50
2022-10-29T22:36:08.879Z,16.20
2022-10-29T22:38:36.997Z,15.60
2022-10-29T22:41:09.026Z,15.60
2022-10-29T22:43:37.019Z,15.00
2022-10-29T22:46:05.642Z,15.60
2022-10-29T22:48:33.434Z,15.70
2022-10-29T22:51:09.656Z,15.70
2022-10-29T22:53:37.131Z,15.70
2022-10-29T22:56:05.285Z,15.70
2022-10-29T22:58:32.918Z,15.70
2022-10-29T23:01:09.444Z,15.60
2022-10-29T23:03:39.373Z,15.70
2022-10-29T23:06:09.573Z,15.60
2022-10-29T23:08:37.299Z,15.70
2022-10-29T23:11:06.762Z,15.70
2022-10-29T23:13:34.551Z,15.60
2022-10-29T23:16:02.094Z,15.60
2022-10-29T23:18:29.585Z,15.50
2022-10-29T23:21:05.511Z,15.80
2022-10-29T23:23:34.408Z,15.60
2022-10-29T23:26:03.342Z,15.60
2022-10-29T23:28:33.990Z,15.60
2022-10-29T23:31:03.893Z,15.60
2022-10-29T23:33:32.756Z,15.60
2022-10-29T23:36:09.855Z,15.60
2022-10-29T23:38:37.157Z,15.60
2022-10-29T23:41:04.640Z,15.60
2022-10-29T23:43:31.913Z,15.80
2022-10-29T23:45:59.681Z,15.60
2022-10-29T23:48:27.752Z,15.70
2022-10-29T23:50:56.670Z,15.60
2022-10-29T23:53:24.686Z,15.60
2022-10-29T23:55:52.266Z,15.60
2022-10-29T23:58:19.581Z,15.60
